CheckWX is a tool to help pilots better visualize weather data.  It is not intended as a substitute for an official pre-flight weather briefing.

14:49:20 UTC

YHID TAF
Horn Island Airport
Horn Island, Australia
TAF AMD YHID 231126Z 2312/2412 03005KT 9999 SCT015 BKN023 INTER 2318/2406 4000 SHRA BKN010 PROB30 TEMPO 2318/2323 VRB30G45KT 1000 TSRA BKN005 SCT020CB

Mar-23@
12:00 UTC

Mar-23 @ 12:00 UTC

Mar-24@
12:00 UTC

Mar-24 @ 12:00 UTC

TAF AMD YHID 231126Z 2312/2412 03005KT 9999 SCT015 BKN023
Wind
  • 030° at 5 KTS
Cloud Levels
  • Scattered at 1,500' AGL
  • Broken at 2,300' AGL

Mar-23@
18:00 UTC

Mar-23 @ 18:00 UTC

Mar-23@
23:00 UTC

Mar-23 @ 23:00 UTC

PROB30 TEMPO 2318/2323 VRB30G45KT 1000 TSRA BKN005 SCT020CB

Temporary - 30% Likelihood

Temporary - 30% Likelihood during this time.

Wind
  • Variable at 30 KTS
  • {Gusting to 45 KTS
Conditions
Thunderstorm, Rain
Cloud Levels
  • Broken at 500' AGL
  • Scattered at 2,000' AGL

Mar-23@
18:00 UTC

Mar-23 @ 18:00 UTC

Mar-24@
06:00 UTC

Mar-24 @ 06:00 UTC

INTER 2318/2406 4000 SHRA BKN010

Temporary

Temporary Changes expected for less than half the time period

Conditions
Rain
Cloud Levels
  • Broken at 1,000' AGL